createdAt,value
2016-09-26T00:00:07.199Z,0
2016-09-26T00:01:07.712Z,0
2016-09-26T00:02:08.369Z,0
2016-09-26T00:03:09.033Z,0
2016-09-26T00:04:09.245Z,0
2016-09-26T00:05:09.762Z,0
2016-09-26T00:06:10.267Z,0
2016-09-26T00:07:10.778Z,0
2016-09-26T00:08:11.287Z,0
2016-09-26T00:09:11.808Z,0
2016-09-26T00:10:12.311Z,0
2016-09-26T00:11:12.974Z,0
2016-09-26T00:12:13.356Z,0
2016-09-26T00:13:13.993Z,0
2016-09-26T00:14:14.378Z,0
2016-09-26T00:15:14.874Z,0
2016-09-26T00:16:15.381Z,0
2016-09-26T00:17:16.042Z,0
2016-09-26T00:18:16.404Z,0
2016-09-26T00:19:17.068Z,0
2016-09-26T00:20:17.435Z,0
2016-09-26T00:21:18.094Z,0
2016-09-26T00:22:18.460Z,0
2016-09-26T00:23:18.967Z,0
2016-09-26T00:24:19.471Z,0
2016-09-26T00:25:19.989Z,0
2016-09-26T00:26:20.497Z,0
2016-09-26T00:27:21.180Z,0
2016-09-26T00:28:21.516Z,0
2016-09-26T00:29:22.032Z,0
2016-09-26T00:30:22.550Z,0
2016-09-26T00:31:23.065Z,0
2016-09-26T00:32:23.728Z,0
2016-09-26T00:33:24.116Z,0
2016-09-26T00:34:24.604Z,0
2016-09-26T00:35:25.115Z,0
2016-09-26T00:36:25.774Z,0
2016-09-26T00:37:26.140Z,0
2016-09-26T00:38:26.648Z,0
2016-09-26T00:39:27.160Z,0
2016-09-26T00:40:27.666Z,0
2016-09-26T00:41:28.182Z,0
2016-09-26T00:42:28.687Z,0
2016-09-26T00:43:29.201Z,0
2016-09-26T00:44:29.749Z,0
2016-09-26T00:45:30.228Z,0
2016-09-26T00:46:30.896Z,0
2016-09-26T00:47:31.405Z,0
2016-09-26T00:48:31.761Z,0
2016-09-26T00:49:32.281Z,0
2016-09-26T00:50:32.779Z,0
2016-09-26T00:51:33.593Z,0
2016-09-26T00:52:33.804Z,0
2016-09-26T00:53:34.319Z,0
2016-09-26T00:54:34.975Z,0
2016-09-26T00:55:35.492Z,0
2016-09-26T00:56:35.855Z,0
2016-09-26T00:57:36.390Z,0
2016-09-26T00:58:36.878Z,0
2016-09-26T00:59:37.385Z,0
2016-09-26T01:00:37.896Z,0
2016-09-26T01:01:38.562Z,0
2016-09-26T01:02:38.923Z,0
2016-09-26T01:03:39.430Z,0
2016-09-26T01:04:39.948Z,0
2016-09-26T01:05:40.457Z,0
2016-09-26T01:06:40.974Z,0
2016-09-26T01:07:41.643Z,0
2016-09-26T01:08:42.006Z,0
2016-09-26T01:09:42.521Z,0
2016-09-26T01:10:43.038Z,0
2016-09-26T01:11:43.700Z,0
2016-09-26T01:12:44.066Z,0
2016-09-26T01:13:44.581Z,0
2016-09-26T01:14:45.093Z,0
2016-09-26T01:15:45.752Z,0
2016-09-26T01:16:46.118Z,0
2016-09-26T01:17:46.625Z,0
2016-09-26T01:18:47.138Z,0
2016-09-26T01:19:47.655Z,0
2016-09-26T01:20:48.161Z,0
2016-09-26T01:21:48.674Z,0
2016-09-26T01:22:49.181Z,0
2016-09-26T01:23:49.698Z,0
2016-09-26T01:24:50.356Z,0
2016-09-26T01:25:50.715Z,0
2016-09-26T01:26:51.247Z,0
2016-09-26T01:27:51.738Z,0
2016-09-26T01:28:52.249Z,0
2016-09-26T01:29:52.760Z,0
2016-09-26T01:30:53.268Z,0
2016-09-26T01:31:53.786Z,0
2016-09-26T01:32:54.292Z,0
2016-09-26T01:33:54.808Z,0
2016-09-26T01:34:55.614Z,0
2016-09-26T01:35:55.992Z,0
2016-09-26T01:36:56.341Z,0
2016-09-26T01:37:56.855Z,0
2016-09-26T01:38:57.368Z,0
2016-09-26T01:39:57.876Z,0
2016-09-26T01:40:58.388Z,0
2016-09-26T01:41:59.052Z,0
2016-09-26T01:42:59.414Z,0
2016-09-26T01:44:00.248Z,0
2016-09-26T01:45:00.447Z,0
2016-09-26T01:46:00.958Z,0
2016-09-26T01:47:01.467Z,0
2016-09-26T01:48:02.131Z,0
2016-09-26T01:49:02.490Z,0
2016-09-26T01:50:03.003Z,0
2016-09-26T01:51:03.515Z,0
2016-09-26T01:52:04.030Z,0
2016-09-26T01:53:04.697Z,0
2016-09-26T01:54:05.211Z,0
2016-09-26T01:55:05.577Z,0
2016-09-26T01:56:06.090Z,0
2016-09-26T01:57:06.591Z,0
2016-09-26T01:58:07.103Z,0
2016-09-26T01:59:07.759Z,0
2016-09-26T02:00:08.123Z,0
2016-09-26T02:01:08.634Z,0
2016-09-26T02:02:09.293Z,0
2016-09-26T02:03:09.657Z,0
2016-09-26T02:04:10.172Z,0
2016-09-26T02:05:10.679Z,0
2016-09-26T02:06:11.204Z,0
2016-09-26T02:07:11.702Z,0
2016-09-26T02:08:12.220Z,0
2016-09-26T02:09:12.875Z,0
2016-09-26T02:10:13.237Z,0
2016-09-26T02:11:13.891Z,0
2016-09-26T02:12:14.402Z,0
2016-09-26T02:13:14.764Z,0
2016-09-26T02:14:15.275Z,0
2016-09-26T02:15:15.784Z,0
2016-09-26T02:16:17.799Z,0
2016-09-26T02:17:16.816Z,0
2016-09-26T02:18:17.480Z,0
2016-09-26T02:19:17.839Z,0
2016-09-26T02:20:18.502Z,0
2016-09-26T02:21:18.868Z,0
2016-09-26T02:22:19.385Z,0
2016-09-26T02:23:19.901Z,0
2016-09-26T02:24:20.413Z,0
2016-09-26T02:25:20.929Z,0
2016-09-26T02:26:21.440Z,0
2016-09-26T02:27:22.104Z,0
2016-09-26T02:28:22.469Z,0
2016-09-26T02:29:23.131Z,0
2016-09-26T02:30:23.488Z,0
2016-09-26T02:31:24.149Z,0
2016-09-26T02:32:24.514Z,0
2016-09-26T02:33:25.027Z,0
2016-09-26T02:34:27.042Z,0
2016-09-26T02:35:26.352Z,0
2016-09-26T02:36:26.714Z,0
2016-09-26T02:37:27.075Z,0
2016-09-26T02:38:27.597Z,0
2016-09-26T02:39:28.109Z,0
2016-09-26T02:40:28.623Z,0
2016-09-26T02:41:29.153Z,0
2016-09-26T02:42:29.647Z,0
2016-09-26T02:43:30.155Z,0
2016-09-26T02:44:30.669Z,0
2016-09-26T02:45:31.199Z,0
2016-09-26T02:46:31.842Z,0
2016-09-26T02:47:32.207Z,0
2016-09-26T02:48:32.714Z,0
2016-09-26T02:49:33.238Z,0
2016-09-26T02:50:33.732Z,0
2016-09-26T02:51:34.399Z,0
2016-09-26T02:52:34.764Z,0
2016-09-26T02:53:35.276Z,0
2016-09-26T02:54:35.792Z,0
2016-09-26T02:55:36.304Z,0
2016-09-26T02:56:36.822Z,0
2016-09-26T02:57:37.337Z,0
2016-09-26T02:58:37.853Z,0
2016-09-26T02:59:38.371Z,0
2016-09-26T03:00:38.883Z,0
2016-09-26T03:01:39.401Z,0
2016-09-26T03:02:39.922Z,0
2016-09-26T03:03:40.419Z,0
2016-09-26T03:04:41.382Z,0
2016-09-26T03:05:41.438Z,0
2016-09-26T03:06:41.953Z,0
2016-09-26T03:07:42.461Z,0
2016-09-26T03:08:43.120Z,0
2016-09-26T03:09:43.480Z,0
2016-09-26T03:10:43.994Z,0
2016-09-26T03:11:44.507Z,0
2016-09-26T03:12:45.012Z,0
2016-09-26T03:13:45.674Z,0
2016-09-26T03:14:46.184Z,0
2016-09-26T03:15:46.559Z,0
2016-09-26T03:16:47.065Z,0
2016-09-26T03:17:47.726Z,0
2016-09-26T03:18:48.087Z,0
2016-09-26T03:19:48.606Z,0
2016-09-26T03:20:49.269Z,0
2016-09-26T03:21:49.628Z,0
2016-09-26T03:22:50.135Z,0
2016-09-26T03:23:50.645Z,0
2016-09-26T03:24:51.158Z,0
2016-09-26T03:25:51.817Z,0
2016-09-26T03:26:52.205Z,0
2016-09-26T03:27:52.690Z,0
2016-09-26T03:28:53.201Z,0
2016-09-26T03:29:53.716Z,0
2016-09-26T03:30:54.224Z,0
2016-09-26T03:31:54.731Z,0
2016-09-26T03:32:55.243Z,0
2016-09-26T03:33:55.755Z,0
2016-09-26T03:34:56.272Z,0
2016-09-26T03:35:56.789Z,0
2016-09-26T03:36:57.451Z,0
2016-09-26T03:37:57.821Z,0
2016-09-26T03:38:58.335Z,0
2016-09-26T03:39:58.846Z,0
2016-09-26T03:40:59.353Z,0
2016-09-26T03:41:59.863Z,0
2016-09-26T03:43:00.374Z,0
2016-09-26T03:44:00.882Z,0
2016-09-26T03:45:01.397Z,0
2016-09-26T03:46:01.906Z,0
2016-09-26T03:47:02.417Z,0
2016-09-26T03:48:02.925Z,0
2016-09-26T03:49:03.437Z,0
2016-09-26T03:50:03.950Z,0
2016-09-26T03:51:04.461Z,0
2016-09-26T03:52:06.023Z,0
2016-09-26T03:53:05.483Z,0
2016-09-26T03:54:05.990Z,0
2016-09-26T03:55:06.653Z,0
2016-09-26T03:56:07.015Z,0
2016-09-26T03:57:07.530Z,0
2016-09-26T03:58:08.040Z,0
2016-09-26T03:59:08.554Z,0
2016-09-26T04:00:09.068Z,0
2016-09-26T04:01:09.582Z,0
2016-09-26T04:02:10.089Z,0
2016-09-26T04:03:10.603Z,0
2016-09-26T04:04:11.276Z,0
2016-09-26T04:05:11.794Z,0
2016-09-26T04:06:12.147Z,0
2016-09-26T04:07:12.654Z,0
2016-09-26T04:08:13.170Z,0
2016-09-26T04:09:13.688Z,0
2016-09-26T04:10:15.693Z,0
2016-09-26T04:11:14.711Z,0
2016-09-26T04:12:15.228Z,0
2016-09-26T04:13:15.892Z,0
2016-09-26T04:14:16.406Z,0
2016-09-26T04:15:16.771Z,0
2016-09-26T04:16:17.290Z,0
2016-09-26T04:17:17.793Z,0
2016-09-26T04:18:18.313Z,0
2016-09-26T04:19:18.974Z,0
2016-09-26T04:20:19.331Z,0
2016-09-26T04:21:19.854Z,0
2016-09-26T04:22:20.514Z,0
2016-09-26T04:23:21.017Z,0
2016-09-26T04:24:21.376Z,0
2016-09-26T04:25:21.888Z,0
2016-09-26T04:26:22.552Z,0
2016-09-26T04:27:22.909Z,0
2016-09-26T04:28:23.582Z,0
2016-09-26T04:29:23.934Z,0
2016-09-26T04:30:24.448Z,0
2016-09-26T04:31:25.256Z,0
2016-09-26T04:32:25.618Z,0
2016-09-26T04:33:25.980Z,0
2016-09-26T04:34:26.487Z,0
2016-09-26T04:35:27.003Z,0
2016-09-26T04:36:27.510Z,0
2016-09-26T04:37:28.033Z,0
2016-09-26T04:38:28.529Z,0
2016-09-26T04:39:29.046Z,0
2016-09-26T04:40:29.856Z,0
2016-09-26T04:41:30.366Z,0
2016-09-26T04:42:30.577Z,0
2016-09-26T04:43:31.087Z,0
2016-09-26T04:44:31.596Z,0
2016-09-26T04:45:32.113Z,0
2016-09-26T04:46:32.617Z,0
2016-09-26T04:47:33.138Z,0
2016-09-26T04:48:33.645Z,0
2016-09-26T04:49:34.165Z,0
2016-09-26T04:50:34.821Z,0
2016-09-26T04:51:35.184Z,0
2016-09-26T04:52:35.841Z,0
2016-09-26T04:53:36.207Z,0
2016-09-26T04:54:36.712Z,0
2016-09-26T04:55:37.225Z,0
2016-09-26T04:56:37.894Z,0
2016-09-26T04:57:38.253Z,0
2016-09-26T04:58:38.764Z,0
2016-09-26T04:59:39.273Z,0
2016-09-26T05:00:39.784Z,0
2016-09-26T05:01:40.302Z,0
2016-09-26T05:02:40.809Z,0
2016-09-26T05:03:41.324Z,0
2016-09-26T05:04:41.828Z,0
2016-09-26T05:05:42.341Z,0
2016-09-26T05:06:43.001Z,0
2016-09-26T05:07:43.359Z,0
2016-09-26T05:08:43.872Z,0
2016-09-26T05:09:44.385Z,0
2016-09-26T05:10:45.049Z,0
2016-09-26T05:11:45.410Z,0
2016-09-26T05:12:45.917Z,0
2016-09-26T05:13:46.431Z,0
2016-09-26T05:14:46.941Z,0
2016-09-26T05:15:47.610Z,0
2016-09-26T05:16:47.971Z,0
2016-09-26T05:17:48.485Z,0
2016-09-26T05:18:48.990Z,0
2016-09-26T05:19:49.507Z,0
2016-09-26T05:20:50.026Z,0
2016-09-26T05:21:50.551Z,0
2016-09-26T05:22:51.072Z,0
2016-09-26T05:23:51.592Z,0
2016-09-26T05:24:52.265Z,0
2016-09-26T05:25:52.630Z,0
2016-09-26T05:26:53.145Z,0
2016-09-26T05:27:53.660Z,0
2016-09-26T05:28:54.175Z,0
2016-09-26T05:29:54.687Z,0
2016-09-26T05:30:55.198Z,0
2016-09-26T05:31:55.710Z,0
2016-09-26T05:32:58.040Z,0
2016-09-26T05:33:56.735Z,0
2016-09-26T05:34:57.237Z,0
2016-09-26T05:35:57.754Z,0
2016-09-26T05:36:58.413Z,0
2016-09-26T05:37:58.779Z,0
2016-09-26T05:38:59.284Z,0
2016-09-26T05:39:59.799Z,0
2016-09-26T05:41:00.308Z,0
2016-09-26T05:42:00.823Z,0
2016-09-26T05:43:01.486Z,0
2016-09-26T05:44:01.845Z,0
2016-09-26T05:45:02.355Z,0
2016-09-26T05:46:02.869Z,0
2016-09-26T05:47:03.384Z,0
2016-09-26T05:48:04.046Z,0
2016-09-26T05:49:04.402Z,0
2016-09-26T05:50:04.920Z,0
2016-09-26T05:51:05.429Z,0
2016-09-26T05:52:05.945Z,0
2016-09-26T05:53:06.455Z,0
2016-09-26T05:54:06.959Z,0
2016-09-26T05:55:07.617Z,0
2016-09-26T05:56:07.989Z,0
2016-09-26T05:57:08.638Z,0
2016-09-26T05:58:09.005Z,0
2016-09-26T05:59:09.507Z,0
2016-09-26T06:00:10.023Z,0
2016-09-26T06:01:10.534Z,0
2016-09-26T06:02:11.057Z,0
2016-09-26T06:03:11.567Z,0
2016-09-26T06:04:12.091Z,0
2016-09-26T06:05:12.591Z,14
2016-09-26T06:06:13.253Z,15
2016-09-26T06:07:13.621Z,15
2016-09-26T06:08:14.134Z,14
2016-09-26T06:09:14.652Z,15
2016-09-26T06:10:15.300Z,15
2016-09-26T06:11:15.659Z,16
2016-09-26T06:12:16.321Z,16
2016-09-26T06:13:16.684Z,17
2016-09-26T06:14:17.196Z,18
2016-09-26T06:15:17.856Z,18
2016-09-26T06:16:18.214Z,19
2016-09-26T06:17:18.729Z,20
2016-09-26T06:18:19.239Z,20
2016-09-26T06:19:19.751Z,20
2016-09-26T06:20:20.265Z,20
2016-09-26T06:21:20.777Z,20
2016-09-26T06:22:21.286Z,20
2016-09-26T06:23:21.793Z,20
2016-09-26T06:24:22.306Z,21
2016-09-26T06:25:22.815Z,21
2016-09-26T06:26:23.328Z,22
2016-09-26T06:27:23.834Z,24
2016-09-26T06:28:24.498Z,25
2016-09-26T06:29:24.868Z,26
2016-09-26T06:30:25.373Z,26
2016-09-26T06:31:25.881Z,26
2016-09-26T06:32:26.402Z,25
2016-09-26T06:33:27.200Z,27
2016-09-26T06:34:27.414Z,24
2016-09-26T06:35:27.924Z,24
2016-09-26T06:36:28.433Z,28
2016-09-26T06:37:28.946Z,29
2016-09-26T06:38:29.609Z,33
2016-09-26T06:39:30.118Z,35
2016-09-26T06:40:30.486Z,38
2016-09-26T06:41:31.153Z,41
2016-09-26T06:42:31.669Z,42
2016-09-26T06:43:32.200Z,44
2016-09-26T06:44:32.550Z,45
2016-09-26T06:45:33.063Z,48
2016-09-26T06:46:33.583Z,49
2016-09-26T06:47:34.240Z,52
2016-09-26T06:48:34.750Z,52
2016-09-26T06:49:35.114Z,53
2016-09-26T06:50:35.777Z,55
2016-09-26T06:51:36.288Z,55
2016-09-26T06:52:36.648Z,55
2016-09-26T06:53:37.160Z,56
2016-09-26T06:54:37.671Z,57
2016-09-26T06:55:38.340Z,58
2016-09-26T06:56:38.703Z,58
2016-09-26T06:57:39.369Z,59
2016-09-26T06:58:39.723Z,60
2016-09-26T06:59:40.258Z,61
2016-09-26T07:00:40.741Z,62
2016-09-26T07:01:41.256Z,62
2016-09-26T07:02:41.775Z,64
2016-09-26T07:03:42.305Z,64
2016-09-26T07:04:44.293Z,63
2016-09-26T07:05:43.303Z,63
2016-09-26T07:06:43.813Z,62
2016-09-26T07:07:44.483Z,62
2016-09-26T07:08:44.837Z,63
2016-09-26T07:09:45.499Z,65
2016-09-26T07:10:45.866Z,68
2016-09-26T07:11:46.378Z,70
2016-09-26T07:12:46.893Z,73
2016-09-26T07:13:47.394Z,76
2016-09-26T07:14:47.905Z,78
2016-09-26T07:15:48.424Z,82
2016-09-26T07:16:49.080Z,84
2016-09-26T07:17:49.459Z,88
2016-09-26T07:18:49.967Z,91
2016-09-26T07:19:50.475Z,93
2016-09-26T07:20:51.144Z,95
2016-09-26T07:21:51.500Z,98
2016-09-26T07:22:52.162Z,100
2016-09-26T07:23:52.528Z,102
2016-09-26T07:24:53.036Z,101
2016-09-26T07:25:53.544Z,106
2016-09-26T07:26:54.060Z,110
2016-09-26T07:27:54.715Z,112
2016-09-26T07:28:55.073Z,114
2016-09-26T07:29:55.585Z,113
2016-09-26T07:30:56.110Z,114
2016-09-26T07:31:56.757Z,115
2016-09-26T07:32:57.129Z,114
2016-09-26T07:33:57.621Z,114
2016-09-26T07:34:58.584Z,115
2016-09-26T07:35:58.645Z,115
2016-09-26T07:36:59.159Z,117
2016-09-26T07:37:59.827Z,121
2016-09-26T07:39:00.188Z,122
2016-09-26T07:40:00.700Z,123
2016-09-26T07:41:01.211Z,120
2016-09-26T07:42:01.717Z,119
2016-09-26T07:43:02.228Z,118
2016-09-26T07:44:02.896Z,115
2016-09-26T07:45:04.300Z,113
2016-09-26T07:46:03.966Z,115
2016-09-26T07:47:04.287Z,112
2016-09-26T07:48:04.822Z,108
2016-09-26T07:49:05.309Z,106
2016-09-26T07:50:05.815Z,101
2016-09-26T07:51:06.322Z,104
2016-09-26T07:52:07.730Z,106
2016-09-26T07:53:07.343Z,108
2016-09-26T07:54:07.857Z,102
2016-09-26T07:55:08.388Z,112
2016-09-26T07:56:08.918Z,111
2016-09-26T07:57:09.409Z,114
2016-09-26T07:58:09.928Z,115
2016-09-26T07:59:10.428Z,116
2016-09-26T08:00:10.933Z,116
2016-09-26T08:01:11.452Z,115
2016-09-26T08:02:11.964Z,115
2016-09-26T08:03:12.479Z,118
2016-09-26T08:04:13.002Z,117
2016-09-26T08:05:13.520Z,115
2016-09-26T08:06:14.167Z,114
2016-09-26T08:07:14.551Z,111
2016-09-26T08:08:15.039Z,116
2016-09-26T08:09:15.550Z,117
2016-09-26T08:10:16.059Z,121
2016-09-26T08:11:16.571Z,124
2016-09-26T08:12:17.082Z,127
2016-09-26T08:13:17.594Z,139
2016-09-26T08:14:18.258Z,141
2016-09-26T08:15:18.770Z,145
2016-09-26T08:16:19.160Z,146
2016-09-26T08:17:19.645Z,149
2016-09-26T08:18:20.157Z,152
2016-09-26T08:19:20.823Z,154
2016-09-26T08:20:21.175Z,158
2016-09-26T08:21:21.691Z,162
2016-09-26T08:22:24.155Z,167
2016-09-26T08:23:22.708Z,173
2016-09-26T08:24:23.218Z,180
2016-09-26T08:25:23.735Z,187
2016-09-26T08:26:24.249Z,193
2016-09-26T08:27:24.767Z,198
2016-09-26T08:28:25.275Z,202
2016-09-26T08:29:25.790Z,207
2016-09-26T08:30:26.457Z,208
2016-09-26T08:31:26.826Z,215
2016-09-26T08:32:27.343Z,222
2016-09-26T08:33:28.011Z,228
2016-09-26T08:34:28.525Z,233
2016-09-26T08:35:28.885Z,240
2016-09-26T08:36:29.397Z,247
2016-09-26T08:37:29.909Z,253
2016-09-26T08:38:30.420Z,261
2016-09-26T08:39:30.931Z,271
2016-09-26T08:40:32.490Z,284
2016-09-26T08:41:31.948Z,300
2016-09-26T08:42:32.607Z,323
2016-09-26T08:43:32.974Z,446
2016-09-26T08:44:33.479Z,694
2016-09-26T08:45:33.991Z,631
2016-09-26T08:46:34.503Z,511
2016-09-26T08:47:35.018Z,462
2016-09-26T08:48:35.527Z,472
2016-09-26T08:49:36.042Z,499
2016-09-26T08:50:36.730Z,558
2016-09-26T08:51:37.367Z,583
2016-09-26T08:52:37.609Z,540
2016-09-26T08:53:38.086Z,506
2016-09-26T08:54:38.603Z,495
2016-09-26T08:55:39.112Z,489
2016-09-26T08:56:39.623Z,483
2016-09-26T08:57:40.145Z,469
2016-09-26T08:58:40.678Z,537
2016-09-26T08:59:41.310Z,434
2016-09-26T09:00:41.669Z,476
2016-09-26T09:01:42.177Z,417
2016-09-26T09:02:42.685Z,400
2016-09-26T09:03:43.362Z,371
2016-09-26T09:04:43.703Z,338
2016-09-26T09:05:44.210Z,312
2016-09-26T09:06:44.731Z,292
2016-09-26T09:07:45.236Z,271
2016-09-26T09:08:46.049Z,262
2016-09-26T09:09:46.275Z,254
2016-09-26T09:10:46.783Z,247
2016-09-26T09:11:47.302Z,246
2016-09-26T09:12:47.817Z,250
2016-09-26T09:13:48.330Z,251
2016-09-26T09:14:49.003Z,240
2016-09-26T09:15:49.347Z,244
2016-09-26T09:16:49.871Z,256
2016-09-26T09:17:50.667Z,263
2016-09-26T09:18:50.870Z,269
2016-09-26T09:19:51.384Z,278
2016-09-26T09:20:51.894Z,307
2016-09-26T09:21:52.403Z,326
2016-09-26T09:22:52.918Z,375
2016-09-26T09:23:53.440Z,337
2016-09-26T09:24:53.939Z,335
2016-09-26T09:25:54.450Z,320
2016-09-26T09:26:54.962Z,306
2016-09-26T09:27:57.422Z,316
2016-09-26T09:28:55.984Z,327
2016-09-26T09:29:56.496Z,329
2016-09-26T09:30:57.159Z,348
2016-09-26T09:31:57.524Z,370
2016-09-26T09:32:58.186Z,374
2016-09-26T09:33:58.545Z,375
2016-09-26T09:34:59.052Z,378
2016-09-26T09:35:59.567Z,389
2016-09-26T09:37:00.077Z,407
2016-09-26T09:38:00.737Z,407
2016-09-26T09:39:01.098Z,779
2016-09-26T09:40:01.608Z,428
2016-09-26T09:41:02.128Z,430
2016-09-26T09:42:02.632Z,695
2016-09-26T09:43:03.142Z,612
2016-09-26T09:44:03.660Z,532
2016-09-26T09:45:04.317Z,424
2016-09-26T09:46:04.686Z,616
2016-09-26T09:47:05.342Z,839
2016-09-26T09:48:05.711Z,408
2016-09-26T09:49:06.223Z,514
2016-09-26T09:50:06.744Z,340
2016-09-26T09:51:07.257Z,322
2016-09-26T09:52:07.926Z,486
2016-09-26T09:53:08.285Z,560
2016-09-26T09:54:08.818Z,389
2016-09-26T09:55:09.336Z,313
2016-09-26T09:56:09.829Z,285
2016-09-26T09:57:10.367Z,306
2016-09-26T09:58:11.443Z,378
2016-09-26T09:59:11.369Z,251
2016-09-26T10:00:11.868Z,260
2016-09-26T10:01:12.529Z,288
2016-09-26T10:02:12.891Z,352
2016-09-26T10:03:13.400Z,454
2016-09-26T10:04:13.916Z,355
2016-09-26T10:05:14.430Z,355
2016-09-26T10:06:14.936Z,414
2016-09-26T10:07:15.746Z,670
2016-09-26T10:08:15.966Z,772
2016-09-26T10:09:16.479Z,725
2016-09-26T10:10:16.993Z,484
2016-09-26T10:11:17.809Z,466
2016-09-26T10:12:18.022Z,636
2016-09-26T10:13:18.532Z,715
2016-09-26T10:14:19.048Z,678
2016-09-26T10:15:19.558Z,731
2016-09-26T10:16:20.215Z,597
2016-09-26T10:17:20.734Z,578
2016-09-26T10:18:21.096Z,528
2016-09-26T10:19:21.609Z,731
2016-09-26T10:20:22.272Z,822
2016-09-26T10:21:22.630Z,750
2016-09-26T10:22:23.145Z,825
2016-09-26T10:23:23.659Z,920
2016-09-26T10:24:24.322Z,746
2016-09-26T10:25:24.845Z,688
2016-09-26T10:26:25.205Z,782
2016-09-26T10:27:25.717Z,885
2016-09-26T10:28:26.234Z,958
2016-09-26T10:29:26.894Z,844
2016-09-26T10:30:27.256Z,575
2016-09-26T10:31:27.764Z,525
2016-09-26T10:32:28.277Z,515
2016-09-26T10:33:28.944Z,543
2016-09-26T10:34:29.300Z,602
2016-09-26T10:35:29.820Z,669
2016-09-26T10:36:30.323Z,724
2016-09-26T10:37:30.984Z,652
2016-09-26T10:38:31.346Z,653
2016-09-26T10:39:31.853Z,610
2016-09-26T10:40:32.514Z,594
2016-09-26T10:41:33.028Z,511
2016-09-26T10:42:33.540Z,493
2016-09-26T10:43:34.054Z,485
2016-09-26T10:44:34.572Z,482
2016-09-26T10:45:34.926Z,479
2016-09-26T10:46:35.603Z,481
2016-09-26T10:47:35.949Z,491
2016-09-26T10:48:36.462Z,497
2016-09-26T10:49:36.968Z,503
2016-09-26T10:50:37.484Z,512
2016-09-26T10:51:37.996Z,519
2016-09-26T10:52:38.511Z,533
2016-09-26T10:53:39.317Z,545
2016-09-26T10:54:39.709Z,564
2016-09-26T10:55:40.049Z,601
2016-09-26T10:56:40.556Z,674
2016-09-26T10:57:41.063Z,545
2016-09-26T10:58:41.722Z,507
2016-09-26T10:59:42.084Z,495
2016-09-26T11:00:42.606Z,575
2016-09-26T11:01:43.112Z,505
2016-09-26T11:02:43.629Z,494
2016-09-26T11:03:44.294Z,478
2016-09-26T11:04:44.652Z,465
2016-09-26T11:05:45.162Z,449
2016-09-26T11:06:45.673Z,440
2016-09-26T11:07:46.185Z,438
2016-09-26T11:08:46.700Z,440
2016-09-26T11:09:47.362Z,443
2016-09-26T11:10:47.724Z,445
2016-09-26T11:11:48.238Z,443
2016-09-26T11:12:48.898Z,431
2016-09-26T11:13:49.259Z,417
2016-09-26T11:14:49.777Z,404
2016-09-26T11:15:50.431Z,392
2016-09-26T11:16:50.797Z,389
2016-09-26T11:17:51.325Z,388
2016-09-26T11:18:51.966Z,389
2016-09-26T11:19:52.482Z,391
2016-09-26T11:20:52.858Z,396
2016-09-26T11:21:53.352Z,400
2016-09-26T11:22:53.865Z,396
2016-09-26T11:23:54.388Z,383
2016-09-26T11:24:55.029Z,381
2016-09-26T11:25:55.540Z,383
2016-09-26T11:26:55.928Z,388
2016-09-26T11:27:56.414Z,390
2016-09-26T11:28:56.927Z,387
2016-09-26T11:29:57.435Z,374
2016-09-26T11:30:57.974Z,355
2016-09-26T11:31:58.461Z,336
2016-09-26T11:32:58.972Z,324
2016-09-26T11:33:59.631Z,317
2016-09-26T11:34:59.993Z,309
2016-09-26T11:36:00.501Z,304
2016-09-26T11:37:01.014Z,297
2016-09-26T11:38:01.533Z,287
2016-09-26T11:39:02.046Z,278
2016-09-26T11:40:02.562Z,272
2016-09-26T11:41:03.080Z,265
2016-09-26T11:42:03.589Z,254
2016-09-26T11:43:04.259Z,240
2016-09-26T11:44:04.620Z,232
2016-09-26T11:45:05.134Z,225
2016-09-26T11:46:05.650Z,215
2016-09-26T11:47:06.167Z,213
2016-09-26T11:48:06.678Z,215
2016-09-26T11:49:07.192Z,218
2016-09-26T11:50:07.701Z,221
2016-09-26T11:51:08.215Z,222
2016-09-26T11:52:09.921Z,195
2016-09-26T11:53:09.381Z,220
2016-09-26T11:54:09.746Z,216
2016-09-26T11:55:10.277Z,215
2016-09-26T11:56:10.777Z,213
2016-09-26T11:57:11.297Z,213
2016-09-26T11:58:11.795Z,209
2016-09-26T11:59:12.318Z,202
2016-09-26T12:00:12.816Z,196
2016-09-26T12:01:13.333Z,187
2016-09-26T12:02:13.839Z,180
2016-09-26T12:03:14.356Z,180
2016-09-26T12:04:14.859Z,180
2016-09-26T12:05:15.380Z,184
2016-09-26T12:06:15.889Z,191
2016-09-26T12:07:16.549Z,203
2016-09-26T12:08:16.919Z,217
2016-09-26T12:09:17.425Z,233
2016-09-26T12:10:18.090Z,244
2016-09-26T12:11:18.455Z,249
2016-09-26T12:12:18.965Z,248
2016-09-26T12:13:19.479Z,244
2016-09-26T12:14:19.992Z,239
2016-09-26T12:15:20.511Z,240
2016-09-26T12:16:21.179Z,242
2016-09-26T12:17:21.543Z,246
2016-09-26T12:18:22.060Z,255
2016-09-26T12:19:22.575Z,271
2016-09-26T12:20:23.078Z,293
2016-09-26T12:21:23.603Z,319
2016-09-26T12:22:25.161Z,348
2016-09-26T12:23:24.625Z,375
2016-09-26T12:24:25.140Z,400
2016-09-26T12:25:25.653Z,412
2016-09-26T12:26:26.315Z,411
2016-09-26T12:27:26.826Z,384
2016-09-26T12:28:27.193Z,356
2016-09-26T12:29:27.709Z,343
2016-09-26T12:30:28.220Z,335
2016-09-26T12:31:28.729Z,333
2016-09-26T12:32:29.241Z,330
2016-09-26T12:33:29.760Z,330
2016-09-26T12:34:30.268Z,326
2016-09-26T12:35:30.779Z,321
2016-09-26T12:36:31.444Z,319
2016-09-26T12:37:31.807Z,326
2016-09-26T12:38:32.316Z,331
2016-09-26T12:39:32.829Z,340
2016-09-26T12:40:33.340Z,348
2016-09-26T12:41:33.849Z,362
2016-09-26T12:42:34.375Z,378
2016-09-26T12:43:35.032Z,390
2016-09-26T12:44:35.395Z,396
2016-09-26T12:45:35.909Z,399
2016-09-26T12:46:36.421Z,402
2016-09-26T12:47:36.940Z,401
2016-09-26T12:48:37.456Z,404
2016-09-26T12:49:37.967Z,400
2016-09-26T12:50:38.481Z,398
2016-09-26T12:51:39.024Z,402
2016-09-26T12:52:39.657Z,441
2016-09-26T12:53:40.184Z,409
2016-09-26T12:54:40.540Z,416
2016-09-26T12:55:41.063Z,403
2016-09-26T12:56:41.574Z,386
2016-09-26T12:57:42.088Z,388
2016-09-26T12:58:42.607Z,396
2016-09-26T12:59:43.121Z,404
2016-09-26T13:00:43.928Z,405
2016-09-26T13:01:44.137Z,410
2016-09-26T13:02:44.798Z,410
2016-09-26T13:03:45.161Z,405
2016-09-26T13:04:45.673Z,396
2016-09-26T13:05:46.186Z,393
2016-09-26T13:06:46.698Z,377
2016-09-26T13:07:47.214Z,361
2016-09-26T13:08:47.722Z,347
2016-09-26T13:09:49.741Z,340
2016-09-26T13:10:48.741Z,332
2016-09-26T13:11:49.258Z,324
2016-09-26T13:12:49.770Z,317
2016-09-26T13:13:50.285Z,307
2016-09-26T13:14:50.970Z,293
2016-09-26T13:15:51.311Z,284
2016-09-26T13:16:51.823Z,276
2016-09-26T13:17:52.484Z,272
2016-09-26T13:18:52.992Z,266
2016-09-26T13:19:53.510Z,259
2016-09-26T13:20:54.018Z,253
2016-09-26T13:21:54.376Z,250
2016-09-26T13:22:54.890Z,248
2016-09-26T13:23:55.551Z,248
2016-09-26T13:24:55.912Z,248
2016-09-26T13:25:56.427Z,245
2016-09-26T13:26:56.950Z,246
2016-09-26T13:27:59.261Z,246
2016-09-26T13:28:57.995Z,236
2016-09-26T13:29:58.638Z,225
2016-09-26T13:30:59.026Z,215
2016-09-26T13:31:59.515Z,203
2016-09-26T13:33:00.043Z,194
2016-09-26T13:34:00.552Z,186
2016-09-26T13:35:01.088Z,180
2016-09-26T13:36:01.573Z,173
2016-09-26T13:37:02.083Z,166
2016-09-26T13:38:02.592Z,160
2016-09-26T13:39:03.255Z,154
2016-09-26T13:40:03.617Z,146
2016-09-26T13:41:04.126Z,139
2016-09-26T13:42:04.642Z,132
2016-09-26T13:43:05.149Z,124
2016-09-26T13:44:05.671Z,119
2016-09-26T13:45:06.177Z,113
2016-09-26T13:46:06.690Z,104
2016-09-26T13:47:07.202Z,102
2016-09-26T13:48:07.867Z,98
2016-09-26T13:49:08.225Z,94
2016-09-26T13:50:08.737Z,85
2016-09-26T13:51:09.249Z,84
2016-09-26T13:52:09.764Z,80
2016-09-26T13:53:10.271Z,76
2016-09-26T13:54:10.790Z,72
2016-09-26T13:55:11.302Z,69
2016-09-26T13:56:11.959Z,66
2016-09-26T13:57:12.475Z,62
2016-09-26T13:58:14.641Z,58
2016-09-26T13:59:13.340Z,58
2016-09-26T14:00:13.852Z,55
2016-09-26T14:01:14.372Z,52
2016-09-26T14:02:14.876Z,48
2016-09-26T14:03:15.540Z,47
2016-09-26T14:04:15.905Z,45
2016-09-26T14:05:16.408Z,44
2016-09-26T14:06:16.925Z,43
2016-09-26T14:07:17.626Z,43
2016-09-26T14:08:17.956Z,44
2016-09-26T14:09:18.471Z,43
2016-09-26T14:10:18.988Z,43
2016-09-26T14:11:19.656Z,43
2016-09-26T14:12:20.013Z,42
2016-09-26T14:13:20.676Z,42
2016-09-26T14:14:21.036Z,42
2016-09-26T14:15:21.694Z,41
2016-09-26T14:16:22.204Z,41
2016-09-26T14:17:22.562Z,40
2016-09-26T14:18:23.220Z,41
2016-09-26T14:19:23.593Z,41
2016-09-26T14:20:24.098Z,42
2016-09-26T14:21:24.607Z,44